NCAR-RAP Real-Time Weather Data

Output produced by METARs form (08 May 2021  16:59 UTC)
found at http://weather.rap.ucar.edu/surface/
 
KIML 081653Z AUTO 35020KT 10SM FEW110 16/09 A2962 RMK AO2 PK WND 36027/1651 SLP014 T01610089
KIML 081604Z AUTO VRB06KT 10SM SCT014 14/09 A2966 RMK AO2 T01440089
KIML 081553Z AUTO 03006KT 10SM BKN014 14/09 A2965 RMK AO2 SLP023 T01440089
KIML 081525Z AUTO 36004KT 10SM OVC010 13/08 A2966 RMK AO2 T01330083
KIML 081453Z AUTO VRB04KT 10SM OVC008 11/08 A2965 RMK AO2 SLP028 T01110078 53004
KIML 081353Z AUTO 11012KT 10SM OVC007 10/08 A2963 RMK AO2 PK WND 13026/1319 SLP019 T01000078
KIML 081253Z AUTO 11012KT 10SM OVC006 08/07 A2965 RMK AO2 SLP026 T00830067
KIML 081237Z AUTO 11013KT 10SM BKN006 08/07 A2965 RMK AO2 T00830067
KIML 081227Z AUTO 11010KT 10SM SCT006 08/07 A2965 RMK AO2 T00830067
KIML 081153Z AUTO 12009KT 10SM CLR 08/06 A2964 RMK AO2 SLP018 T00780061 10133 20078 58020
KIML 081053Z AUTO 13012KT 10SM CLR 08/06 A2966 RMK AO2 SLP025 T00830061
KIML 080953Z AUTO 12012KT 10SM CLR 09/06 A2968 RMK AO2 SLP029 T00890061
KIML 080853Z AUTO 12012KT 10SM CLR 09/06 A2970 RMK AO2 SLP038 T00940061 58024
KIML 080753Z AUTO 12015KT 10SM CLR 11/07 A2974 RMK AO2 SLP050 T01060067
KIML 080653Z AUTO 10012KT 10SM CLR 12/07 A2977 RMK AO2 PK WND 12027/0604 SLP060 T01220072 402610044
KIML 080553Z AUTO 11015G22KT 10SM CLR 13/08 A2978 RMK AO2 SLP066 T01330078 10239 20133 58011
KIML 080453Z AUTO 11016G26KT 10SM CLR 16/09 A2981 RMK AO2 PK WND 13030/0355 SLP076 T01560094
KIML 080353Z AUTO 12017G28KT 10SM CLR 17/09 A2983 RMK AO2 PK WND 13030/0324 SLP082 T01720094